createdAt,value
2022-09-09T00:00:47.197Z,16.51
2022-09-09T00:01:47.180Z,16.50
2022-09-09T00:02:47.264Z,16.52
2022-09-09T00:03:47.318Z,16.54
2022-09-09T00:04:47.150Z,16.52
2022-09-09T00:05:47.149Z,16.52
2022-09-09T00:06:47.121Z,16.50
2022-09-09T00:07:47.096Z,16.50
2022-09-09T00:08:47.098Z,16.51
2022-09-09T00:09:47.094Z,16.50
2022-09-09T00:10:47.049Z,16.52
2022-09-09T00:11:47.061Z,16.52
2022-09-09T00:12:47.030Z,16.51
2022-09-09T00:13:47.051Z,16.51
2022-09-09T00:14:47.028Z,16.54
2022-09-09T00:15:47.068Z,16.55
2022-09-09T00:16:47.022Z,16.57
2022-09-09T00:17:47.007Z,16.57
2022-09-09T00:18:46.992Z,16.57
2022-09-09T00:19:47.050Z,16.57
2022-09-09T00:20:46.944Z,16.57
2022-09-09T00:21:47.005Z,16.55
2022-09-09T00:22:47.017Z,16.55
2022-09-09T00:23:46.948Z,16.57
2022-09-09T00:24:47.745Z,16.55
2022-09-09T00:25:49.733Z,16.55
2022-09-09T00:26:46.983Z,16.57
2022-09-09T00:27:46.881Z,16.57
2022-09-09T00:28:46.888Z,16.60
2022-09-09T00:29:46.975Z,16.62
2022-09-09T00:30:46.887Z,16.62
2022-09-09T00:31:46.789Z,16.60
2022-09-09T00:32:46.858Z,16.57
2022-09-09T00:33:46.849Z,16.55
2022-09-09T00:34:46.807Z,16.55
2022-09-09T00:35:46.884Z,16.54
2022-09-09T00:36:46.749Z,16.52
2022-09-09T00:37:46.751Z,16.52
2022-09-09T00:38:46.785Z,16.52
2022-09-09T00:39:46.795Z,16.52
2022-09-09T00:40:46.736Z,16.51
2022-09-09T00:41:46.807Z,16.50
2022-09-09T00:42:46.747Z,16.51
2022-09-09T00:43:46.677Z,16.52
2022-09-09T00:44:46.725Z,16.51
2022-09-09T00:45:46.773Z,16.50
2022-09-09T00:46:46.682Z,16.50
2022-09-09T00:47:46.791Z,16.47
2022-09-09T00:48:46.685Z,16.47
2022-09-09T00:49:46.631Z,16.47
2022-09-09T00:50:46.717Z,16.48
2022-09-09T00:51:46.640Z,16.45
2022-09-09T00:52:46.586Z,16.45
2022-09-09T00:53:46.725Z,16.44
2022-09-09T00:54:46.640Z,16.44
2022-09-09T00:55:46.674Z,16.42
2022-09-09T00:56:46.642Z,16.44
2022-09-09T00:57:46.599Z,16.41
2022-09-09T00:58:46.548Z,16.40
2022-09-09T00:59:46.682Z,16.40
2022-09-09T01:00:46.572Z,16.42
2022-09-09T01:01:46.645Z,16.41
2022-09-09T01:02:46.637Z,16.41
2022-09-09T01:03:46.521Z,16.40
2022-09-09T01:04:46.471Z,16.41
2022-09-09T01:05:46.541Z,16.41
2022-09-09T01:06:46.494Z,16.41
2022-09-09T01:07:46.550Z,16.41
2022-09-09T01:08:46.467Z,16.40
2022-09-09T01:09:46.403Z,16.40
2022-09-09T01:10:46.382Z,16.37
2022-09-09T01:11:46.912Z,16.34
2022-09-09T01:12:46.426Z,16.34
2022-09-09T01:13:46.331Z,16.34
2022-09-09T01:14:46.423Z,16.32
2022-09-09T01:15:46.396Z,16.32
2022-09-09T01:16:46.451Z,16.30
2022-09-09T01:17:46.397Z,16.33
2022-09-09T01:18:46.324Z,16.32
2022-09-09T01:19:46.317Z,16.29
2022-09-09T01:20:46.314Z,16.29
2022-09-09T01:21:46.359Z,16.27
2022-09-09T01:22:46.314Z,16.25
2022-09-09T01:23:46.298Z,16.23
2022-09-09T01:24:46.254Z,16.18
2022-09-09T01:25:46.278Z,16.18
2022-09-09T01:26:46.181Z,16.17
2022-09-09T01:27:46.239Z,16.07
2022-09-09T01:28:46.278Z,16.07
2022-09-09T01:29:46.184Z,16.07
2022-09-09T01:30:46.254Z,16.06
2022-09-09T01:31:46.141Z,16.06
2022-09-09T01:32:46.162Z,16.04
2022-09-09T01:33:46.252Z,16.03
2022-09-09T01:34:46.174Z,16.03
2022-09-09T01:35:46.134Z,15.95
2022-09-09T01:36:46.131Z,15.92
2022-09-09T01:37:46.096Z,15.92
2022-09-09T01:38:46.260Z,15.91
2022-09-09T01:39:46.280Z,15.89
2022-09-09T01:40:46.078Z,15.91
2022-09-09T01:41:46.082Z,15.89
2022-09-09T01:42:46.064Z,15.84
2022-09-09T01:43:46.031Z,15.80
2022-09-09T01:44:46.064Z,15.78
2022-09-09T01:45:46.098Z,15.74
2022-09-09T01:46:46.026Z,15.67
2022-09-09T01:47:45.977Z,15.66
2022-09-09T01:48:46.009Z,15.64
2022-09-09T01:49:46.010Z,15.64
2022-09-09T01:50:45.934Z,15.64
2022-09-09T01:51:45.957Z,15.60
2022-09-09T01:52:45.983Z,15.60
2022-09-09T01:53:45.901Z,15.60
2022-09-09T01:54:45.923Z,15.60
2022-09-09T01:55:45.879Z,15.62
2022-09-09T01:56:45.861Z,15.60
2022-09-09T01:57:45.817Z,15.59
2022-09-09T01:58:45.912Z,15.60
2022-09-09T01:59:45.791Z,15.60
2022-09-09T02:00:45.906Z,15.60
2022-09-09T02:01:45.860Z,15.58
2022-09-09T02:02:45.857Z,15.56
2022-09-09T02:03:45.890Z,15.52
2022-09-09T02:04:45.809Z,15.52
2022-09-09T02:05:45.792Z,15.51
2022-09-09T02:06:45.884Z,15.48
2022-09-09T02:07:45.899Z,15.49
2022-09-09T02:08:45.716Z,15.51
2022-09-09T02:09:45.779Z,15.48
2022-09-09T02:10:45.707Z,15.41
2022-09-09T02:11:45.843Z,15.40
2022-09-09T02:12:45.703Z,15.33
2022-09-09T02:13:45.679Z,15.35
2022-09-09T02:14:45.735Z,15.33
2022-09-09T02:15:45.663Z,15.34
2022-09-09T02:16:45.699Z,15.33
2022-09-09T02:17:45.653Z,15.33
2022-09-09T02:18:45.584Z,15.30
2022-09-09T02:19:45.792Z,15.31
2022-09-09T02:20:45.616Z,15.30
2022-09-09T02:21:45.651Z,15.33
2022-09-09T02:22:45.645Z,15.34
2022-09-09T02:23:45.567Z,15.33
2022-09-09T02:24:45.632Z,15.31
2022-09-09T02:25:45.601Z,15.30
2022-09-09T02:26:45.482Z,15.31
2022-09-09T02:27:45.717Z,15.33
2022-09-09T02:28:45.685Z,15.33
2022-09-09T02:29:45.586Z,15.30
2022-09-09T02:30:45.616Z,15.31
2022-09-09T02:31:45.461Z,15.31
2022-09-09T02:32:45.440Z,15.31
2022-09-09T02:33:45.427Z,15.31
2022-09-09T02:34:45.443Z,15.30
2022-09-09T02:35:45.496Z,15.30
2022-09-09T02:36:45.393Z,15.33
2022-09-09T02:37:45.372Z,15.33
2022-09-09T02:38:45.501Z,15.35
2022-09-09T02:39:45.450Z,15.35
2022-09-09T02:40:45.352Z,15.35
2022-09-09T02:41:45.504Z,15.37
2022-09-09T02:42:45.392Z,15.40
2022-09-09T02:43:45.334Z,15.41
2022-09-09T02:44:45.362Z,15.40
2022-09-09T02:45:45.343Z,15.40
2022-09-09T02:46:45.297Z,15.41
2022-09-09T02:47:45.308Z,15.40
2022-09-09T02:48:45.289Z,15.40
2022-09-09T02:49:45.257Z,15.40
2022-09-09T02:50:45.251Z,15.41
2022-09-09T02:51:45.280Z,15.40
2022-09-09T02:52:45.207Z,15.40
2022-09-09T02:53:45.808Z,15.38
2022-09-09T02:54:45.199Z,15.40
2022-09-09T02:55:45.227Z,15.38
2022-09-09T02:56:45.231Z,15.38
2022-09-09T02:57:45.182Z,15.40
2022-09-09T02:58:45.149Z,15.41
2022-09-09T02:59:45.137Z,15.41
2022-09-09T03:00:45.191Z,15.41
2022-09-09T03:01:45.126Z,15.41
2022-09-09T03:02:45.215Z,15.40
2022-09-09T03:03:45.137Z,15.40
2022-09-09T03:04:45.138Z,15.40
2022-09-09T03:05:45.148Z,15.40
2022-09-09T03:06:45.056Z,15.40
2022-09-09T03:07:45.068Z,15.40
2022-09-09T03:08:49.482Z,15.40
2022-09-09T03:09:45.001Z,15.38
2022-09-09T03:10:45.043Z,15.38
2022-09-09T03:11:45.129Z,15.37
2022-09-09T03:12:45.051Z,15.35
2022-09-09T03:13:44.990Z,15.35
2022-09-09T03:14:45.046Z,15.34
2022-09-09T03:15:45.013Z,15.31
2022-09-09T03:16:45.004Z,15.31
2022-09-09T03:17:45.165Z,15.34
2022-09-09T03:18:45.033Z,15.33
2022-09-09T03:19:44.936Z,15.31
2022-09-09T03:20:44.934Z,15.30
2022-09-09T03:21:45.018Z,15.28
2022-09-09T03:22:44.858Z,15.28
2022-09-09T03:23:44.870Z,15.28
2022-09-09T03:24:44.901Z,15.30
2022-09-09T03:25:44.869Z,15.30
2022-09-09T03:26:44.864Z,15.23
2022-09-09T03:27:44.838Z,15.23
2022-09-09T03:28:44.767Z,15.20
2022-09-09T03:29:44.794Z,15.22
2022-09-09T03:30:44.742Z,15.25
2022-09-09T03:31:44.935Z,15.27
2022-09-09T03:32:48.784Z,15.27
2022-09-09T03:33:44.769Z,15.28
2022-09-09T03:34:44.753Z,15.28
2022-09-09T03:35:44.746Z,15.28
2022-09-09T03:36:44.862Z,15.27
2022-09-09T03:37:44.748Z,15.27
2022-09-09T03:38:44.699Z,15.25
2022-09-09T03:39:44.833Z,15.27
2022-09-09T03:40:44.729Z,15.27
2022-09-09T03:41:44.645Z,15.25
2022-09-09T03:42:44.824Z,15.23
2022-09-09T03:43:44.643Z,15.22
2022-09-09T03:44:44.710Z,15.23
2022-09-09T03:45:44.619Z,15.23
2022-09-09T03:46:44.573Z,15.22
2022-09-09T03:47:44.649Z,15.19
2022-09-09T03:48:44.555Z,15.16
2022-09-09T03:49:44.567Z,15.16
2022-09-09T03:50:44.526Z,15.13
2022-09-09T03:51:44.541Z,15.15
2022-09-09T03:52:44.572Z,15.15
2022-09-09T03:53:44.509Z,15.13
2022-09-09T03:54:44.479Z,15.13
2022-09-09T03:55:44.500Z,15.13
2022-09-09T03:56:44.532Z,15.13
2022-09-09T03:57:44.552Z,15.13
2022-09-09T03:58:44.503Z,15.12
2022-09-09T03:59:44.432Z,15.13
2022-09-09T04:00:44.518Z,15.13
2022-09-09T04:01:44.485Z,15.13
2022-09-09T04:02:44.492Z,15.13
2022-09-09T04:03:44.405Z,15.13
2022-09-09T04:04:44.419Z,15.13
2022-09-09T04:05:44.418Z,15.13
2022-09-09T04:06:44.408Z,15.15
2022-09-09T04:07:44.456Z,15.15
2022-09-09T04:08:44.374Z,15.16
2022-09-09T04:09:44.372Z,15.18
2022-09-09T04:10:44.336Z,15.16
2022-09-09T04:11:44.372Z,15.16
2022-09-09T04:12:47.777Z,15.16
2022-09-09T04:13:44.297Z,15.16
2022-09-09T04:14:44.279Z,15.18
2022-09-09T04:15:44.364Z,15.18
2022-09-09T04:16:44.358Z,15.16
2022-09-09T04:17:44.337Z,15.18
2022-09-09T04:18:44.316Z,15.18
2022-09-09T04:19:44.257Z,15.15
2022-09-09T04:20:44.254Z,15.15
2022-09-09T04:21:44.219Z,15.16
2022-09-09T04:22:44.292Z,15.16
2022-09-09T04:23:44.254Z,15.18
2022-09-09T04:24:48.556Z,15.20
2022-09-09T04:25:44.238Z,15.23
2022-09-09T04:26:44.171Z,15.22
2022-09-09T04:27:44.236Z,15.23
2022-09-09T04:28:44.208Z,15.23
2022-09-09T04:29:44.123Z,15.23
2022-09-09T04:30:44.158Z,15.23
2022-09-09T04:31:44.203Z,15.23
2022-09-09T04:32:44.055Z,15.20
2022-09-09T04:33:44.050Z,15.16
2022-09-09T04:34:44.021Z,15.18
2022-09-09T04:35:44.004Z,15.19
2022-09-09T04:36:43.974Z,15.20
2022-09-09T04:37:43.968Z,15.18
2022-09-09T04:38:43.996Z,15.16
2022-09-09T04:39:43.997Z,15.15
2022-09-09T04:40:43.948Z,15.16
2022-09-09T04:41:43.945Z,15.16
2022-09-09T04:42:43.928Z,15.13
2022-09-09T04:43:43.914Z,15.11
2022-09-09T04:44:43.932Z,15.11
2022-09-09T04:45:43.970Z,15.09
2022-09-09T04:46:43.880Z,15.12
2022-09-09T04:47:43.882Z,15.12
2022-09-09T04:48:43.867Z,15.12
2022-09-09T04:49:43.841Z,15.12
2022-09-09T04:50:43.866Z,15.12
2022-09-09T04:51:43.808Z,15.13
2022-09-09T04:52:43.799Z,15.13
2022-09-09T04:53:43.803Z,15.16
2022-09-09T04:54:43.794Z,15.16
2022-09-09T04:55:43.802Z,15.15
2022-09-09T04:56:43.753Z,15.12
2022-09-09T04:57:43.732Z,15.15
2022-09-09T04:58:43.728Z,15.18
2022-09-09T04:59:43.750Z,15.13
2022-09-09T05:00:43.810Z,15.13
2022-09-09T05:01:43.759Z,15.18
2022-09-09T05:02:43.758Z,15.19
2022-09-09T05:03:43.702Z,15.23
2022-09-09T05:04:43.662Z,15.23
2022-09-09T05:05:43.690Z,15.25
2022-09-09T05:06:43.642Z,15.28
2022-09-09T05:07:43.639Z,15.30
2022-09-09T05:08:43.660Z,15.30
2022-09-09T05:09:43.595Z,15.33
2022-09-09T05:10:43.604Z,15.34
2022-09-09T05:11:43.596Z,15.35
2022-09-09T05:12:43.567Z,15.37
2022-09-09T05:13:43.582Z,15.40
2022-09-09T05:14:43.566Z,15.41
2022-09-09T05:15:43.569Z,15.43
2022-09-09T05:16:43.585Z,15.44
2022-09-09T05:17:43.513Z,15.44
2022-09-09T05:18:43.533Z,15.44
2022-09-09T05:19:43.498Z,15.48
2022-09-09T05:20:43.499Z,15.48
2022-09-09T05:21:43.463Z,15.48
2022-09-09T05:22:43.461Z,15.49
2022-09-09T05:23:43.443Z,15.51
2022-09-09T05:24:43.434Z,15.53
2022-09-09T05:25:43.487Z,15.53
2022-09-09T05:26:43.419Z,15.55
2022-09-09T05:27:43.402Z,15.55
2022-09-09T05:28:43.380Z,15.55
2022-09-09T05:29:43.387Z,15.55
2022-09-09T05:30:43.393Z,15.56
2022-09-09T05:31:43.398Z,15.59
2022-09-09T05:32:43.378Z,15.59
2022-09-09T05:33:43.333Z,15.60
2022-09-09T05:34:43.351Z,15.62
2022-09-09T05:35:43.337Z,15.62
2022-09-09T05:36:43.360Z,15.64
2022-09-09T05:37:43.312Z,15.64
2022-09-09T05:38:43.279Z,15.66
2022-09-09T05:39:43.651Z,15.66
2022-09-09T05:40:43.293Z,15.66
2022-09-09T05:41:43.234Z,15.68
2022-09-09T05:42:43.258Z,15.70
2022-09-09T05:43:43.237Z,15.68
2022-09-09T05:44:43.239Z,15.64
2022-09-09T05:45:43.236Z,15.67
2022-09-09T05:46:43.229Z,15.70
2022-09-09T05:47:43.198Z,15.70
2022-09-09T05:48:43.177Z,15.73
2022-09-09T05:49:43.162Z,15.70
2022-09-09T05:50:43.144Z,15.71
2022-09-09T05:51:43.134Z,15.73
2022-09-09T05:52:43.153Z,15.73
2022-09-09T05:53:43.123Z,15.73
2022-09-09T05:54:43.089Z,15.74
2022-09-09T05:55:43.099Z,15.74
2022-09-09T05:56:43.104Z,15.77
2022-09-09T05:57:43.095Z,15.78
2022-09-09T05:58:43.053Z,15.77
2022-09-09T05:59:43.041Z,15.77
2022-09-09T06:00:43.213Z,15.77
2022-09-09T06:01:43.169Z,15.80
2022-09-09T06:02:43.130Z,15.80
2022-09-09T06:03:43.006Z,15.84
2022-09-09T06:04:43.035Z,15.80
2022-09-09T06:05:42.987Z,15.84
2022-09-09T06:06:42.977Z,15.86
2022-09-09T06:07:42.998Z,15.89
2022-09-09T06:08:42.925Z,15.92
2022-09-09T06:09:42.927Z,15.93
2022-09-09T06:10:42.915Z,15.96
2022-09-09T06:11:42.903Z,15.99
2022-09-09T06:12:42.930Z,15.99
2022-09-09T06:13:42.879Z,15.99
2022-09-09T06:14:46.291Z,16.01
2022-09-09T06:15:42.854Z,16.04
2022-09-09T06:16:42.885Z,16.06
2022-09-09T06:17:42.856Z,16.06
2022-09-09T06:18:42.829Z,16.06
2022-09-09T06:19:42.831Z,16.08
2022-09-09T06:20:42.796Z,16.08
2022-09-09T06:21:42.806Z,16.10
2022-09-09T06:22:42.810Z,16.13
2022-09-09T06:23:42.770Z,16.14
2022-09-09T06:24:42.766Z,16.18
2022-09-09T06:25:42.761Z,16.14
2022-09-09T06:26:42.804Z,16.16
2022-09-09T06:27:42.737Z,16.18
2022-09-09T06:28:42.722Z,16.16
2022-09-09T06:29:42.684Z,16.17
2022-09-09T06:30:42.709Z,16.17
2022-09-09T06:31:42.782Z,16.22
2022-09-09T06:32:42.693Z,16.26
2022-09-09T06:33:42.644Z,16.30
2022-09-09T06:34:42.658Z,16.34
2022-09-09T06:35:42.625Z,16.37
2022-09-09T06:36:42.602Z,16.33
2022-09-09T06:37:42.641Z,16.33
2022-09-09T06:38:42.590Z,16.36
2022-09-09T06:39:42.604Z,16.40
2022-09-09T06:40:42.565Z,16.32
2022-09-09T06:41:42.547Z,16.32
2022-09-09T06:42:42.581Z,16.32
2022-09-09T06:43:42.527Z,16.33
2022-09-09T06:44:42.526Z,16.40
2022-09-09T06:45:42.509Z,16.40
2022-09-09T06:46:42.577Z,16.33
2022-09-09T06:47:42.511Z,16.37
2022-09-09T06:48:42.464Z,16.44
2022-09-09T06:49:44.598Z,16.47
2022-09-09T06:50:42.452Z,16.48
2022-09-09T06:51:42.431Z,16.54
2022-09-09T06:52:42.442Z,16.59
2022-09-09T06:53:43.009Z,16.60
2022-09-09T06:54:42.441Z,16.57
2022-09-09T06:55:42.407Z,16.57
2022-09-09T06:56:42.455Z,16.60
2022-09-09T06:57:42.421Z,16.62
2022-09-09T06:58:42.359Z,16.66
2022-09-09T06:59:42.362Z,16.69
2022-09-09T07:00:42.439Z,16.72
2022-09-09T07:01:42.435Z,16.78
2022-09-09T07:02:42.323Z,16.75
2022-09-09T07:03:42.324Z,16.78
2022-09-09T07:04:42.303Z,16.82
2022-09-09T07:05:42.312Z,16.87
2022-09-09T07:06:42.275Z,16.87
2022-09-09T07:07:42.292Z,16.78
2022-09-09T07:08:42.260Z,16.72
2022-09-09T07:09:42.282Z,16.78
2022-09-09T07:10:42.226Z,16.77
2022-09-09T07:11:42.224Z,16.80
2022-09-09T07:12:42.213Z,16.87
2022-09-09T07:13:42.205Z,16.92
2022-09-09T07:14:42.168Z,16.96
2022-09-09T07:15:42.259Z,16.98
2022-09-09T07:16:42.147Z,16.95
2022-09-09T07:17:42.160Z,16.85
2022-09-09T07:18:42.152Z,16.88
2022-09-09T07:19:42.149Z,16.92
2022-09-09T07:20:42.105Z,16.95
2022-09-09T07:21:42.120Z,17.00
2022-09-09T07:22:42.112Z,17.02
2022-09-09T07:23:42.114Z,17.10
2022-09-09T07:24:42.055Z,17.15
2022-09-09T07:25:42.121Z,17.22
2022-09-09T07:26:42.030Z,17.24
2022-09-09T07:27:42.089Z,17.25
2022-09-09T07:28:42.018Z,17.22
2022-09-09T07:29:42.019Z,17.18
2022-09-09T07:30:42.006Z,17.18
2022-09-09T07:31:42.054Z,17.21
2022-09-09T07:32:42.014Z,17.25
2022-09-09T07:33:41.995Z,17.25
2022-09-09T07:34:41.971Z,17.24
2022-09-09T07:35:41.970Z,17.25
2022-09-09T07:36:41.958Z,17.28
2022-09-09T07:37:41.956Z,17.33
2022-09-09T07:38:41.915Z,17.39
2022-09-09T07:39:41.962Z,17.47
2022-09-09T07:40:41.877Z,17.47
2022-09-09T07:41:41.905Z,17.57
2022-09-09T07:42:41.877Z,17.66
2022-09-09T07:43:41.868Z,17.73
2022-09-09T07:44:41.876Z,17.76
2022-09-09T07:45:41.864Z,17.80
2022-09-09T07:46:41.882Z,17.86
2022-09-09T07:47:41.820Z,17.86
2022-09-09T07:48:41.810Z,17.81
2022-09-09T07:49:41.787Z,17.81
2022-09-09T07:50:41.771Z,17.84
2022-09-09T07:51:41.769Z,17.96
2022-09-09T07:52:41.841Z,18.04
2022-09-09T07:53:41.727Z,18.19
2022-09-09T07:54:41.715Z,18.26
2022-09-09T07:55:41.714Z,18.34
2022-09-09T07:56:41.722Z,18.38
2022-09-09T07:57:41.709Z,18.44
2022-09-09T07:58:41.670Z,18.32
2022-09-09T07:59:41.668Z,18.19
2022-09-09T08:00:41.682Z,18.11
2022-09-09T08:01:41.662Z,18.04
2022-09-09T08:02:41.699Z,17.99
2022-09-09T08:03:41.652Z,17.98
2022-09-09T08:04:41.609Z,17.87
2022-09-09T08:05:41.593Z,17.84
2022-09-09T08:06:41.591Z,17.84
2022-09-09T08:07:41.603Z,17.83
2022-09-09T08:08:41.565Z,17.77
2022-09-09T08:09:41.549Z,17.81
2022-09-09T08:10:41.546Z,17.84
2022-09-09T08:11:41.533Z,17.84
2022-09-09T08:12:47.681Z,17.91
2022-09-09T08:13:41.508Z,17.94
2022-09-09T08:14:41.522Z,17.98
2022-09-09T08:15:41.523Z,17.95
2022-09-09T08:16:41.488Z,17.94
2022-09-09T08:17:41.471Z,17.98
2022-09-09T08:18:41.477Z,18.01
2022-09-09T08:19:41.432Z,18.07
2022-09-09T08:20:41.438Z,18.10
2022-09-09T08:21:41.431Z,18.17
2022-09-09T08:22:41.429Z,18.25
2022-09-09T08:23:41.386Z,18.32
2022-09-09T08:24:41.382Z,18.39
2022-09-09T08:25:41.401Z,18.42
2022-09-09T08:26:41.367Z,18.42
2022-09-09T08:27:41.371Z,18.36
2022-09-09T08:28:41.389Z,18.31
2022-09-09T08:29:41.328Z,18.21
2022-09-09T08:30:41.316Z,18.19
2022-09-09T08:31:41.328Z,18.25
2022-09-09T08:32:43.459Z,18.34
2022-09-09T08:33:41.290Z,18.47
2022-09-09T08:34:41.550Z,18.62
2022-09-09T08:35:41.258Z,18.74
2022-09-09T08:36:41.273Z,18.83
2022-09-09T08:37:41.236Z,18.84
2022-09-09T08:38:41.250Z,18.83
2022-09-09T08:39:41.223Z,18.93
2022-09-09T08:40:41.203Z,18.79
2022-09-09T08:41:41.217Z,19.02
2022-09-09T08:42:41.197Z,19.06
2022-09-09T08:43:41.175Z,19.15
2022-09-09T08:44:44.403Z,19.06
2022-09-09T08:45:41.136Z,19.17
2022-09-09T08:46:41.227Z,19.25
2022-09-09T08:47:41.116Z,19.32
2022-09-09T08:48:41.129Z,19.47
2022-09-09T08:49:41.113Z,19.43
2022-09-09T08:50:41.084Z,19.30
2022-09-09T08:51:41.071Z,19.28
2022-09-09T08:52:41.073Z,19.32
2022-09-09T08:53:41.061Z,19.24
2022-09-09T08:54:52.257Z,19.13
2022-09-09T08:55:41.062Z,19.09
2022-09-09T08:56:41.013Z,19.15
2022-09-09T08:57:41.047Z,19.12
2022-09-09T08:58:41.020Z,19.16
2022-09-09T08:59:40.988Z,19.16
2022-09-09T09:00:40.985Z,19.10
2022-09-09T09:01:41.004Z,19.24
2022-09-09T09:02:40.958Z,19.39
2022-09-09T09:03:40.954Z,19.62
2022-09-09T09:04:41.018Z,19.80
2022-09-09T09:05:40.919Z,19.95
2022-09-09T09:06:40.903Z,20.07
2022-09-09T09:07:40.941Z,20.15
2022-09-09T09:08:40.868Z,20.20
2022-09-09T09:09:40.864Z,20.17
2022-09-09T09:10:42.606Z,20.10
2022-09-09T09:11:40.864Z,19.94
2022-09-09T09:12:40.843Z,19.97
2022-09-09T09:13:43.871Z,20.01
2022-09-09T09:14:41.237Z,20.07
2022-09-09T09:15:40.834Z,20.02
2022-09-09T09:16:40.776Z,19.89
2022-09-09T09:17:40.818Z,19.94
2022-09-09T09:18:40.790Z,20.00
2022-09-09T09:19:40.763Z,20.13
2022-09-09T09:20:40.729Z,20.27
2022-09-09T09:21:40.747Z,20.46
2022-09-09T09:22:40.752Z,20.66
2022-09-09T09:23:40.714Z,20.73
2022-09-09T09:24:40.706Z,20.71
2022-09-09T09:25:40.680Z,20.72
2022-09-09T09:26:40.677Z,20.71
2022-09-09T09:27:40.702Z,20.85
2022-09-09T09:28:40.642Z,20.88
2022-09-09T09:30:03.513Z,21.06
2022-09-09T09:30:40.629Z,21.03
2022-09-09T09:31:40.620Z,21.18
2022-09-09T09:32:40.621Z,21.11
2022-09-09T09:33:40.608Z,20.97
2022-09-09T09:34:40.586Z,20.78
2022-09-09T09:35:43.087Z,20.58
2022-09-09T09:36:40.570Z,20.51
2022-09-09T09:40:04.805Z,20.85
2022-09-09T09:40:09.880Z,20.98
2022-09-09T09:41:09.861Z,21.05
2022-09-09T09:42:09.872Z,21.08
2022-09-09T09:43:09.856Z,21.11
2022-09-09T09:44:09.825Z,21.05
2022-09-09T09:45:09.816Z,20.93
2022-09-09T09:46:18.199Z,20.87
2022-09-09T09:47:09.808Z,20.97
2022-09-09T09:48:13.825Z,20.97
2022-09-09T09:49:09.802Z,20.98
2022-09-09T09:50:09.778Z,21.16
2022-09-09T09:51:09.736Z,21.28
2022-09-09T09:52:09.757Z,21.45
2022-09-09T09:53:09.725Z,21.43
2022-09-09T09:54:09.704Z,21.45
2022-09-09T09:55:09.704Z,21.34
2022-09-09T09:56:09.679Z,21.18
2022-09-09T09:57:09.744Z,21.27
2022-09-09T09:58:09.658Z,21.52
2022-09-09T09:59:17.925Z,21.66
2022-09-09T10:00:09.698Z,21.83
2022-09-09T10:01:09.701Z,22.09
2022-09-09T10:02:09.629Z,22.33
2022-09-09T10:03:09.602Z,22.36
2022-09-09T10:04:09.585Z,22.35
2022-09-09T10:05:09.669Z,22.38
2022-09-09T10:06:09.562Z,22.46
2022-09-09T10:07:09.591Z,22.64
2022-09-09T10:08:09.539Z,22.78
2022-09-09T10:09:09.536Z,22.88
2022-09-09T10:10:09.529Z,22.88
2022-09-09T10:11:09.525Z,22.72
2022-09-09T10:12:09.511Z,22.66
2022-09-09T10:13:09.499Z,22.48
2022-09-09T10:14:09.471Z,22.24
2022-09-09T10:15:09.473Z,22.12
2022-09-09T10:16:09.612Z,22.17
2022-09-09T10:17:09.480Z,22.08
2022-09-09T10:18:09.433Z,21.96
2022-09-09T10:19:09.433Z,22.02
2022-09-09T10:20:09.406Z,22.01
2022-09-09T10:21:09.399Z,22.06
2022-09-09T10:22:09.413Z,22.08
2022-09-09T10:23:09.386Z,21.63
2022-09-09T10:24:09.372Z,21.68
2022-09-09T10:25:09.374Z,21.75
2022-09-09T10:26:09.346Z,21.82
2022-09-09T10:27:09.351Z,21.56
2022-09-09T10:28:09.335Z,21.43
2022-09-09T10:29:09.309Z,21.55
2022-09-09T10:30:09.335Z,21.58
2022-09-09T10:31:09.339Z,21.74
2022-09-09T10:32:09.289Z,21.86
2022-09-09T10:34:09.242Z,22.14
2022-09-09T10:35:09.242Z,22.14
2022-09-09T10:36:09.220Z,22.05
2022-09-09T10:37:09.245Z,21.90
2022-09-09T10:38:09.205Z,21.68
2022-09-09T10:39:09.187Z,21.52
2022-09-09T10:40:09.223Z,21.37
2022-09-09T10:41:09.174Z,21.24
2022-09-09T10:42:09.176Z,20.91
2022-09-09T10:43:09.164Z,20.76
2022-09-09T10:44:09.135Z,20.73
2022-09-09T10:45:09.159Z,20.78
2022-09-09T10:46:09.252Z,20.68
2022-09-09T10:47:09.121Z,20.56
2022-09-09T10:48:09.108Z,20.42
2022-09-09T10:49:09.082Z,20.34
2022-09-09T10:50:09.223Z,20.35
2022-09-09T10:51:09.321Z,20.34
2022-09-09T10:52:09.055Z,20.31
2022-09-09T10:53:09.034Z,20.31
2022-09-09T10:54:09.025Z,20.33
2022-09-09T10:55:09.011Z,20.37
2022-09-09T10:56:08.999Z,20.31
2022-09-09T10:57:09.009Z,20.17
2022-09-09T10:58:08.965Z,20.25
2022-09-09T10:59:08.967Z,20.33
2022-09-09T11:00:09.020Z,20.50
2022-09-09T11:01:08.965Z,20.72
2022-09-09T11:02:08.942Z,20.68
2022-09-09T11:03:08.942Z,20.75
2022-09-09T11:04:08.902Z,20.82
2022-09-09T11:05:08.904Z,20.91
2022-09-09T11:06:08.945Z,21.08
2022-09-09T11:07:11.875Z,21.22
2022-09-09T11:08:08.849Z,21.33
2022-09-09T11:09:08.858Z,21.40
2022-09-09T11:10:08.888Z,21.45
2022-09-09T11:11:08.820Z,21.37
2022-09-09T11:12:08.844Z,21.49
2022-09-09T11:13:08.805Z,21.66
2022-09-09T11:14:08.806Z,21.61
2022-09-09T11:15:08.773Z,21.56
2022-09-09T11:16:08.754Z,21.34
2022-09-09T11:17:08.759Z,21.22
2022-09-09T11:18:08.762Z,21.13
2022-09-09T11:19:08.741Z,21.11
2022-09-09T11:20:08.742Z,21.00
2022-09-09T11:21:08.712Z,20.93
2022-09-09T11:22:08.682Z,20.85
2022-09-09T11:23:08.711Z,20.85
2022-09-09T11:24:08.673Z,21.13
2022-09-09T11:25:08.686Z,21.45
2022-09-09T11:26:08.678Z,21.71
2022-09-09T11:27:08.669Z,21.85
2022-09-09T11:28:08.626Z,21.85
2022-09-09T11:29:08.685Z,21.91
2022-09-09T11:30:08.617Z,22.21
2022-09-09T11:31:08.685Z,22.31
2022-09-09T11:32:08.606Z,22.27
2022-09-09T11:33:08.564Z,22.09
2022-09-09T11:34:08.556Z,21.94
2022-09-09T11:35:08.571Z,22.04
2022-09-09T11:36:08.623Z,22.01
2022-09-09T11:37:08.520Z,22.15
2022-09-09T11:38:08.578Z,22.21
2022-09-09T11:39:08.514Z,22.49
2022-09-09T11:40:08.635Z,22.63
2022-09-09T11:41:08.504Z,22.74
2022-09-09T11:42:08.474Z,22.42
2022-09-09T11:43:08.467Z,22.23
2022-09-09T11:44:08.467Z,22.14
2022-09-09T11:45:08.442Z,22.08
2022-09-09T11:46:08.469Z,21.99
2022-09-09T11:47:08.443Z,21.96
2022-09-09T11:48:08.395Z,21.99
2022-09-09T11:49:08.414Z,21.98
2022-09-09T11:50:08.373Z,21.90
2022-09-09T11:51:10.208Z,21.81
2022-09-09T11:52:08.362Z,21.71
2022-09-09T11:53:08.345Z,21.93
2022-09-09T11:54:08.338Z,22.14
2022-09-09T11:55:08.314Z,22.44
2022-09-09T11:56:08.353Z,22.75
2022-09-09T11:57:08.310Z,22.94
2022-09-09T11:58:08.284Z,23.04
2022-09-09T11:59:08.272Z,23.23
2022-09-09T12:00:08.281Z,23.25
2022-09-09T12:01:08.255Z,23.09
2022-09-09T12:02:08.295Z,23.06
2022-09-09T12:03:08.234Z,22.93
2022-09-09T12:04:08.292Z,23.00
2022-09-09T12:05:08.265Z,22.91
2022-09-09T12:06:08.208Z,22.70
2022-09-09T12:07:08.184Z,22.31
2022-09-09T12:08:08.229Z,22.38
2022-09-09T12:09:08.194Z,22.45
2022-09-09T12:10:08.157Z,22.69
2022-09-09T12:11:08.231Z,22.84
2022-09-09T12:12:08.146Z,22.97
2022-09-09T12:13:08.133Z,22.96
2022-09-09T12:14:08.108Z,22.96
2022-09-09T12:15:08.103Z,22.82
2022-09-09T12:16:08.091Z,22.42
2022-09-09T12:17:08.088Z,22.15
2022-09-09T12:18:08.085Z,21.99
2022-09-09T12:19:08.050Z,21.99
2022-09-09T12:20:08.150Z,22.01
2022-09-09T12:21:08.042Z,22.02
2022-09-09T12:22:08.115Z,22.04
2022-09-09T12:23:08.017Z,22.12
2022-09-09T12:24:07.988Z,22.20
2022-09-09T12:25:08.044Z,22.15
2022-09-09T12:26:08.047Z,22.26
2022-09-09T12:27:07.985Z,22.42
2022-09-09T12:28:08.004Z,22.52
2022-09-09T12:29:07.958Z,22.64
2022-09-09T12:30:07.933Z,22.76
2022-09-09T12:31:07.980Z,22.67
2022-09-09T12:32:07.931Z,22.72
2022-09-09T12:33:07.913Z,22.67
2022-09-09T12:34:07.898Z,22.61
2022-09-09T12:35:07.902Z,22.61
2022-09-09T12:36:07.855Z,22.74
2022-09-09T12:37:07.860Z,22.94
2022-09-09T12:38:07.832Z,22.86
2022-09-09T12:39:07.824Z,22.76
2022-09-09T12:40:07.861Z,22.70
2022-09-09T12:41:07.813Z,22.42
2022-09-09T12:42:07.816Z,22.14
2022-09-09T12:43:07.800Z,22.14
2022-09-09T12:44:07.773Z,22.02
2022-09-09T12:45:07.768Z,22.06
2022-09-09T12:46:07.783Z,22.12
2022-09-09T12:47:07.791Z,22.33
2022-09-09T12:48:07.747Z,22.48
2022-09-09T12:49:07.719Z,22.49
2022-09-09T12:50:07.704Z,22.52
2022-09-09T12:51:07.696Z,22.51
2022-09-09T12:52:07.694Z,22.29
2022-09-09T12:53:07.693Z,22.41
2022-09-09T12:54:07.698Z,22.52
2022-09-09T12:55:07.646Z,22.66